Huizhou, China
Current Conditions -  °F | °C
As of 11:00 PM on Sunday 21 Dec 2014 (Local Time) from ZGSZ Reporting Station
Clear Clear  
Wind Chill: 55°   Ceiling: Unl
Heat Index: 55°   Visibility: 6mi
Dew Point: 32°   Wind: 13mph
Humidity: 41%   Direction: 10°N
Pressure: 30.3"   Gusts: NA
Location:  23.08°N, 114.4°E
Report Text: ZGSZ 211500Z 01006MPS CAVOK 13/00 Q1026 NOSIG
Loading
Personal Weather Stations






























Interactive Weather Map New forecast layout! Learn more

10-Day Weather Forecast

Advertisements
Track Severe Weather on mobile